Impacts TAF Board INFO
FOR SITUATIONAL AWARENESS. NOT TO BE USED FOR FLIGHT PLANNING PURPOSES.
IDs:

KLGA - New York/La Guardia, NY, US

Issued at 1417 UTC 13 Dec 2017
Updated at 1454 UTC 13 Dec 2017
Potential Impact None Slight Moderate High
Time<<14/15Z 14/16Z 14/17Z 14/18Z 14/19Z 14/20Z 14/21Z 14/22Z 14/23Z 15/00Z 15/01Z 15/02Z 15/03Z
Type PRVL PRVL PRVL
VIS 2 2 2
CIG 20 20 20
Cover BKN BKN BKN
FltCat IFR IFR IFR
WX -SN -SN -SN
WDir 280 280 280
WSpd 7 7 7
WGst -- -- --

Raw TAF
KLGA 131417Z 1314/1418 28020G32KT P6SM SCT025
  FM131600 28024G37KT P6SM FEW050 FEW100
  FM140100 27016G28KT P6SM BKN100
  FM140700 26008G18KT P6SM VCSH BKN030
  FM141000 28007KT 2SM -SN BKN020


METAR Board
Radar Display
Forecast Discussion

FOR SITUATIONAL AWARENESS. NOT TO BE USED FOR FLIGHT PLANNING PURPOSES.